• Join FlightAware (Why Join?)
  • Login
  • US Flag 
05:50PM EDT


 

Airport Tracker/Info


-or-


 

Live Flight TrackerFlight Track Log ✈ AAY874 ✈ 30-Jun-2014 ✈ KPIE - KBGR

Flight Track Log - Related Links

Times and Time Zones

All times are in EDT time to prevent confusion due to time zone crossing. See the AAY874 flight status page for this flight to view local times or setup timezone preferences in your user account.

Time Position Orientation Groundspeed Altitude Reporting Facility
EDT Latitude Longitude Course Direction KTS MPH feet Rate Location/Type
02:35PM 27.9000 -82.6833 North 15 17 100  Level Tampa TRACON
02:36PM 27.8833 -82.6833 180° South 91 105 100  Level Tampa TRACON
02:39PM 27.9000 -82.6833 360° North 11 13 100 300 Level Tampa TRACON
02:40PM 27.9500 -82.7000 344° North 171 197 1,500 1,200 Climbing Tampa TRACON
02:41PM 28.0000 -82.6667 30° Northeast 222 255 2,800 1,620 Climbing Tampa TRACON
02:42PM 28.7332 -82.6333 North  Level FlightAware Approximate
02:42PM 28.0500 -82.6500 16° North 276 318 4,600  Level Tampa TRACON
02:43PM 28.1167 -82.6500 360° North 254 292 7,600 2,400 Climbing Tampa TRACON
02:45PM 28.2372 -82.6358 North 269 310 11,000 1,740 Climbing Jacksonville Center
02:46PM 28.3208 -82.6283 North 281 323 12,400 1,440 Climbing Jacksonville Center
02:47PM 28.4167 -82.6211 North 313 360 13,900 1,620 Climbing Jacksonville Center
02:48PM 28.5189 -82.6114 North 343 395 15,700 1,680 Climbing Jacksonville Center
02:49PM 28.6233 -82.5992 North 363 418 17,300 1,500 Climbing Jacksonville Center
02:50PM 28.7297 -82.5894 North 376 433 18,700 1,500 Climbing Jacksonville Center
02:51PM 28.8425 -82.5797 North 388 447 20,300 1,440 Climbing Jacksonville Center
02:52PM 28.9550 -82.5817 359° North 393 452 21,600 1,260 Climbing Jacksonville Center
02:53PM 29.0678 -82.6075 349° North 398 458 22,900 1,140 Climbing Jacksonville Center
02:54PM 29.1828 -82.6358 348° North 411 473 23,900 1,080 Climbing Jacksonville Center
02:55PM 29.3058 -82.6617 350° North 430 495 25,100 960 Climbing Jacksonville Center
03:00PM 30.0252 -82.7842 354° North 468 539 30,300 960 Climbing FlightAware ADS-B (KMCO)
03:02PM 30.2539 -82.8108 354° North 457 526 32,300 1,020 Climbing FlightAware ADS-B (KMCO)
03:04PM 30.4067 -82.7805 36° Northeast 448 516 33,500 840 Climbing FlightAware ADS-B (KMCO)
03:05PM 30.5419 -82.6611 36° Northeast 433 498 34,600 600 Climbing Jacksonville Center
03:06PM 30.6275 -82.5858 37° Northeast 427 491 35,000 180 Climbing Jacksonville Center
03:07PM 30.7356 -82.4889 38° Northeast 437 503 35,000  Level Jacksonville Center
03:08PM 30.8356 -82.4014 37° Northeast 437 503 35,000  Level Jacksonville Center
03:09PM 30.9356 -82.3114 38° Northeast 447 514 35,000  Level Jacksonville Center
03:10PM 31.0372 -82.2186 38° Northeast 447 514 35,000  Level Jacksonville Center
03:11PM 31.1350 -82.1306 38° Northeast 447 514 35,000  Level Jacksonville Center
03:12PM 31.2344 -82.0372 39° Northeast 447 514 35,000  Level Jacksonville Center
03:13PM 31.3342 -81.9514 36° Northeast 442 509 35,000  Level Jacksonville Center
03:14PM 31.4192 -81.8700 39° Northeast 442 509 35,000  Level Jacksonville Center
03:15PM 31.5289 -81.7714 37° Northeast 442 509 35,000  Level Jacksonville Center
03:16PM 31.6264 -81.6825 38° Northeast 442 509 35,000  Level Jacksonville Center
03:17PM 31.7153 -81.6006 38° Northeast 442 509 35,000  Level Jacksonville Center
03:18PM 31.8206 -81.4964 40° Northeast 442 509 35,000  Level Jacksonville Center
03:19PM 31.9136 -81.4142 37° Northeast 454 522 35,000  Level Jacksonville Center
03:20PM 32.0211 -81.3169 37° Northeast 460 529 35,000  Level Jacksonville Center
03:21PM 32.1181 -81.2222 40° Northeast 454 522 35,000  Level Jacksonville Center
03:22PM 32.2042 -81.1125 47° Northeast 440 506 35,000  Level Jacksonville Center
03:23PM 32.2817 -80.9981 51° Northeast 452 520 35,000  Level Jacksonville Center
03:24PM 32.3511 -80.8883 53° Northeast 452 520 35,000  Level Jacksonville Center
03:25PM 32.4325 -80.7586 53° Northeast 449 517 35,000  Level Jacksonville Center
03:26PM 32.5078 -80.6411 53° Northeast 442 509 35,000 -60 Level Jacksonville Center
03:27PM 32.5828 -80.5258 52° Northeast 442 509 34,900  Descending Jacksonville Center
03:28PM 32.6597 -80.4053 53° Northeast 448 516 35,000  Climbing Jacksonville Center
03:29PM 32.7328 -80.2897 53° Northeast 443 510 35,000  Level Jacksonville Center
03:30PM 32.8075 -80.1714 53° Northeast 443 510 35,000  Level Jacksonville Center
03:31PM 32.8864 -80.0578 50° Northeast 443 510 35,000  Level Jacksonville Center
03:32PM 32.9844 -79.9656 38° Northeast 443 510 35,000 -60 Level Jacksonville Center
03:33PM 33.0911 -79.8925 30° Northeast 443 510 34,900  Descending Jacksonville Center
03:38PM 33.6756 -79.4651 32° Northeast 441 507 35,000  Climbing FlightAware ADS-B (KCDN)
03:39PM 33.7307 -79.4242 32° Northeast 442 509 35,000  Level FlightAware ADS-B (KCDN)
03:40PM 33.8142 -79.3606 32° Northeast 427 491 35,000  Level Jacksonville Center
03:41PM 33.9206 -79.2864 30° Northeast 427 491 35,000  Level Jacksonville Center
03:42PM 34.0247 -79.2094 31° Northeast 427 491 35,000  Level Jacksonville Center
03:43PM 34.1286 -79.1297 32° Northeast 433 498 35,000  Level Jacksonville Center
03:45PM 34.3725 -78.9439 32° Northeast 435 501 35,000  Level Washington Center
03:46PM 34.4750 -78.8675 32° Northeast 435 501 35,000  Level Washington Center
03:53PM 35.1020 -78.3871 32° Northeast 437 503 35,000  Level FlightAware ADS-B (KJNX)
03:53PM 35.1718 -78.3331 32° Northeast 439 505 35,000  Level FlightAware ADS-B (KJNX)
03:54PM 35.2365 -78.2831 32° Northeast 440 506 35,000  Level FlightAware ADS-B (KJNX)
03:55PM 35.2988 -78.2348 32° Northeast 441 507 35,000  Level FlightAware ADS-B (KJNX)
03:55PM 35.3704 -78.1791 32° Northeast 441 507 35,000  Level FlightAware ADS-B (KJNX)
03:56PM 35.4410 -78.1242 32° Northeast 441 507 35,000  Level FlightAware ADS-B (KJNX)
03:57PM 35.5065 -78.0733 32° Northeast 441 507 35,000  Level FlightAware ADS-B (KJNX)
03:57PM 35.5730 -78.0213 32° Northeast 438 504 35,000  Level FlightAware ADS-B (KJNX)
03:58PM 35.6277 -77.9785 32° Northeast 438 504 35,000  Level FlightAware ADS-B (KJNX)
04:01PM 35.9938 -77.6879 37° Northeast 440 506 35,000  Level FlightAware ADS-B (KWWD)
04:02PM 36.0677 -77.6191 37° Northeast 440 506 35,000  Level FlightAware ADS-B (KWWD)
04:04PM 36.3132 -77.3903 37° Northeast 440 506 35,000  Level FlightAware ADS-B (KWWD)
04:05PM 36.3783 -77.3292 37° Northeast 442 509 35,000  Level FlightAware ADS-B (KWWD)
04:05PM 36.4317 -77.2789 37° Northeast 443 510 35,000  Level FlightAware ADS-B (KWWD)
04:06PM 36.4917 -77.2226 37° Northeast 443 510 35,000  Level FlightAware ADS-B (KPGV)
04:07PM 36.5438 -77.1735 37° Northeast 444 511 35,000  Level FlightAware ADS-B (KPGV)
04:07PM 36.5939 -77.1261 37° Northeast 444 511 35,000  Level FlightAware ADS-B (KPGV)
04:08PM 36.6480 -77.0750 37° Northeast 444 511 35,000  Level FlightAware ADS-B (KWWD)
04:08PM 36.7107 -77.0156 37° Northeast 445 512 35,000  Level FlightAware ADS-B (KWWD)
04:09PM 36.7874 -76.9458 35° Northeast 444 511 35,000  Level FlightAware ADS-B (KPGV)
04:09PM 36.7949 -76.9393 36° Northeast 438 504 35,000  Level FlightAware ADS-B (KWWD)
04:10PM 36.8530 -76.8876 36° Northeast 444 511 35,000  Level FlightAware ADS-B (KPGV)
04:10PM 36.8898 -76.8546 36° Northeast 437 503 35,000  Level FlightAware ADS-B (KWWD)
04:11PM 36.9410 -76.8085 36° Northeast 443 510 35,000  Level FlightAware ADS-B (KPGV)
04:11PM 36.9670 -76.7849 35° Northeast 441 507 35,000  Level FlightAware ADS-B (KDCA)
04:11PM 36.9892 -76.7648 36° Northeast 441 507 35,000  Level FlightAware ADS-B (KWWD)
04:12PM 37.0401 -76.7187 36° Northeast 441 507 35,000  Level FlightAware ADS-B (KPGV)
04:12PM 37.0633 -76.6977 36° Northeast 440 506 35,000  Level FlightAware ADS-B (KPGV)
04:13PM 37.1411 -76.6272 36° Northeast 439 505 35,000  Level FlightAware ADS-B (KWWD)
04:13PM 37.2041 -76.5700 36° Northeast 438 504 35,000  Level FlightAware ADS-B (KDCA)
04:14PM 37.2559 -76.5229 36° Northeast 439 505 35,000  Level FlightAware ADS-B (KDCA)
04:14PM 37.3125 -76.4712 36° Northeast 439 505 35,000  Level FlightAware ADS-B (KWWD)
04:15PM 37.3681 -76.4202 36° Northeast 439 505 35,000  Level FlightAware ADS-B (KWWD)
04:16PM 37.4328 -76.3609 36° Northeast 439 505 35,000  Level FlightAware ADS-B (KDCA)
04:16PM 37.4997 -76.2996 36° Northeast 440 506 35,000  Level FlightAware ADS-B (KDCA)
04:17PM 37.5602 -76.2438 36° Northeast 441 507 35,000  Level FlightAware ADS-B (KDCA)
04:17PM 37.6154 -76.1929 36° Northeast 441 507 35,000  Level FlightAware ADS-B (KWWD)
04:18PM 37.6698 -76.1426 36° Northeast 441 507 35,000  Level FlightAware ADS-B (KWWD)
04:19PM 37.7258 -76.0907 36° Northeast 441 507 35,000  Level FlightAware ADS-B (KDCA)
04:19PM 37.7746 -76.0454 36° Northeast 441 507 35,000  Level FlightAware ADS-B (KSBY)
04:20PM 37.8327 -75.9914 36° Northeast 440 506 35,000  Level FlightAware ADS-B (KWWD)
04:20PM 37.8846 -75.9431 36° Northeast 439 505 35,000 180 Level FlightAware ADS-B (KSBY)
04:21PM 37.9526 -75.8798 36° Northeast 441 507 35,300 720 Climbing FlightAware ADS-B (KSBY)
04:21PM 37.9681 -75.8654 36° Northeast 441 507 35,600 900 Climbing FlightAware ADS-B (KDCA)
04:22PM 38.0164 -75.8201 37° Northeast 442 509 35,900 720 Climbing FlightAware ADS-B (KSBY)
04:22PM 38.0540 -75.7848 36° Northeast 442 509 36,200 720 Climbing FlightAware ADS-B (KDCA)
04:22PM 38.0905 -75.7506 37° Northeast 442 509 36,500 660 Climbing FlightAware ADS-B (KSBY)
04:23PM 38.1522 -75.6926 37° Northeast 441 507 36,900 480 Climbing FlightAware ADS-B (KSBY)
04:23PM 38.2015 -75.6461 37° Northeast 444 511 37,000 60 Climbing FlightAware ADS-B (KSBY)
04:24PM 38.2602 -75.5907 37° Northeast 443 510 37,000  Level FlightAware ADS-B (KSBY)
04:25PM 38.3075 -75.5483 32° Northeast 438 504 37,000  Level FlightAware ADS-B (KSBY)
04:25PM 38.3364 -75.5266 28° Northeast 437 503 37,000  Level FlightAware ADS-B (KWWD)
04:25PM 38.3887 -75.4947 23° Northeast 436 502 37,000  Level FlightAware ADS-B (KSBY)
04:26PM 38.4414 -75.4707 18° North 436 502 37,000  Level FlightAware ADS-B (KSBY)
04:26PM 38.5011 -75.4461 18° North 437 503 37,000  Level FlightAware ADS-B (KSBY)
04:27PM 38.5526 -75.4246 18° North 438 504 37,000  Level FlightAware ADS-B (KSBY)
04:27PM 38.6200 -75.3964 18° North 437 503 37,000  Level FlightAware ADS-B (KSBY)
04:28PM 38.6821 -75.3705 18° North 437 503 37,000  Level FlightAware ADS-B (KWWD)
04:28PM 38.7038 -75.3615 18° North 434 499 37,000  Level FlightAware ADS-B (KSBY)
04:29PM 38.8200 -75.3055 29° Northeast 437 503 37,000  Level FlightAware ADS-B (KWWD)
04:29PM 38.8319 -75.2958 31° Northeast 439 505 37,000  Level FlightAware ADS-B (KSBY)
04:30PM 38.8887 -75.2485 33° Northeast 439 505 37,000  Level FlightAware ADS-B (KSBY)
04:30PM 38.9436 -75.2034 33° Northeast 439 505 37,000  Level FlightAware ADS-B (KSBY)
04:31PM 38.9969 -75.1595 33° Northeast 440 506 37,000  Level FlightAware ADS-B (KSBY)
04:31PM 39.0741 -75.0957 33° Northeast 439 505 37,000  Level FlightAware ADS-B (KPHL)
04:32PM 39.1549 -75.0286 33° Northeast 439 505 37,000  Level FlightAware ADS-B (KWWD)
04:33PM 39.2148 -74.9788 33° Northeast 439 505 37,000  Level FlightAware ADS-B (KWWD)
04:33PM 39.2738 -74.9297 33° Northeast 439 505 37,000  Level FlightAware ADS-B (KWWD)
04:34PM 39.3669 -74.8521 33° Northeast 439 505 37,000  Level FlightAware ADS-B (KWWD)
04:35PM 39.4148 -74.8121 33° Northeast 439 505 37,000  Level FlightAware ADS-B (KWWD)
04:35PM 39.4858 -74.7526 33° Northeast 438 504 37,000  Level FlightAware ADS-B (KWWD)
04:36PM 39.5399 -74.7073 34° Northeast 430 495 37,000  Level FlightAware ADS-B (KWWD)
04:37PM 39.6091 -74.6490 34° Northeast 429 494 37,000  Level FlightAware ADS-B (KWWD)
04:37PM 39.6600 -74.6062 34° Northeast 430 495 37,000  Level FlightAware ADS-B (KWWD)
04:39PM 39.8015 -74.4865 33° Northeast 436 502 37,000  Level FlightAware ADS-B (KPHL)
04:40PM 39.8999 -74.3924 39° Northeast 439 505 37,000  Level FlightAware ADS-B (KPHL)
04:40PM 39.9476 -74.3431 38° Northeast 439 505 37,000  Level FlightAware ADS-B (KSNC)
04:41PM 40.0239 -74.2665 38° Northeast 440 506 37,000  Level FlightAware ADS-B (KSNC)
04:41PM 40.0776 -74.2128 38° Northeast 436 502 37,000  Level FlightAware ADS-B (KWWD)
04:42PM 40.1339 -74.1561 38° Northeast 443 510 37,000  Level FlightAware ADS-B (KSNC)
04:43PM 40.1871 -74.1025 38° Northeast 445 512 37,000  Level FlightAware ADS-B (KSNC)
04:43PM 40.2553 -74.0336 38° Northeast 446 513 37,000  Level FlightAware ADS-B (KWWD)
04:44PM 40.3065 -73.9818 38° Northeast 446 513 37,000  Level FlightAware ADS-B (KWWD)
04:44PM 40.3676 -73.9198 38° Northeast 446 513 37,000  Level FlightAware ADS-B (KSNC)
04:45PM 40.4247 -73.8616 38° Northeast 445 512 37,000  Level FlightAware ADS-B (KWWD)
04:46PM 40.4795 -73.8059 38° Northeast 445 512 37,000  Level FlightAware ADS-B (KSNC)
04:46PM 40.5296 -73.7548 38° Northeast 445 512 37,000  Level FlightAware ADS-B (KSNC)
04:47PM 40.5887 -73.6944 38° Northeast 443 510 37,000  Level FlightAware ADS-B (KPHL)
04:47PM 40.5961 -73.6868 39° Northeast 438 504 37,000  Level FlightAware ADS-B (KWWD)
04:47PM 40.6164 -73.6660 39° Northeast 438 504 37,000  Level FlightAware ADS-B (KWWD)
04:47PM 40.6283 -73.6538 39° Northeast 438 504 37,000  Level FlightAware ADS-B (KWWD)
04:47PM 40.6452 -73.6365 39° Northeast 438 504 37,000  Level FlightAware ADS-B (KWWD)
04:47PM 40.6693 -73.6119 39° Northeast 438 504 37,000  Level FlightAware ADS-B (KWWD)
04:48PM 40.6943 -73.5862 39° Northeast 438 504 37,000  Level FlightAware ADS-B (KWWD)
04:48PM 40.7240 -73.5555 39° Northeast 438 504 37,000  Level FlightAware ADS-B (KWWD)
04:49PM 40.7758 -73.5020 38° Northeast 445 512 37,000  Level FlightAware ADS-B (KSNC)
04:49PM 40.7922 -73.4851 39° Northeast 439 505 37,000  Level FlightAware ADS-B (KWWD)
04:49PM 40.8040 -73.4730 39° Northeast 439 505 37,000  Level FlightAware ADS-B (KWWD)
04:49PM 40.8587 -73.4164 38° Northeast 447 514 37,000  Level FlightAware ADS-B (KSNC)
04:49PM 40.8646 -73.4103 39° Northeast 440 506 37,000  Level FlightAware ADS-B (KWWD)
04:50PM 40.9207 -73.3521 38° Northeast 446 513 37,000  Level FlightAware ADS-B (KSNC)
04:51PM 40.9704 -73.3005 38° Northeast 446 513 37,000  Level FlightAware ADS-B (KSNC)
04:51PM 41.0269 -73.2417 39° Northeast 440 506 37,000  Level FlightAware ADS-B (KWWD)
04:51PM 41.0583 -73.2089 39° Northeast 440 506 37,000  Level FlightAware ADS-B (KWWD)
04:52PM 41.0709 -73.1957 39° Northeast 439 505 37,000  Level FlightAware ADS-B (KWWD)
04:52PM 41.1004 -73.1650 39° Northeast 437 503 37,000  Level FlightAware ADS-B (KWWD)
04:52PM 41.1498 -73.1133 39° Northeast 437 503 37,000  Level FlightAware ADS-B (KWWD)
04:53PM 41.2012 -73.0594 38° Northeast 443 510 37,000  Level FlightAware ADS-B (KSNC)
04:53PM 41.2295 -73.0296 39° Northeast 437 503 37,000  Level FlightAware ADS-B (KWWD)
04:54PM 41.2800 -72.9765 38° Northeast 443 510 37,000  Level FlightAware ADS-B (KSNC)
04:54PM 41.2902 -72.9658 39° Northeast 437 503 37,000  Level FlightAware ADS-B (KWWD)
04:54PM 41.3467 -72.9063 38° Northeast 441 507 37,000  Level FlightAware ADS-B (KSNC)
04:55PM 41.3991 -72.8509 39° Northeast 441 507 37,000  Level FlightAware ADS-B (KSNC)
04:56PM 41.4473 -72.7994 39° Northeast 441 507 37,000  Level FlightAware ADS-B (KSNC)
04:56PM 41.5196 -72.7195 40° Northeast 440 506 37,000  Level FlightAware ADS-B (KSNC)
04:57PM 41.5665 -72.6675 40° Northeast 440 506 37,000  Level FlightAware ADS-B (KSNC)
04:58PM 41.6444 -72.5816 40° Northeast 439 505 37,000  Level FlightAware ADS-B (KSNC)
04:58PM 41.7027 -72.5170 40° Northeast 440 506 37,000  Level FlightAware ADS-B (KSNC)
04:59PM 41.7606 -72.4529 40° Northeast 441 507 37,000  Level FlightAware ADS-B (KSNC)
04:59PM 41.8152 -72.3922 40° Northeast 440 506 37,000  Level FlightAware ADS-B (KSNC)
05:00PM 41.8688 -72.3323 40° Northeast 439 505 37,000  Level FlightAware ADS-B (KSNC)
05:01PM 41.9185 -72.2766 40° Northeast 438 504 37,000  Level FlightAware ADS-B (KSNC)
05:01PM 41.9926 -72.1935 40° Northeast 437 503 37,000  Level FlightAware ADS-B (KSNC)
05:02PM 42.0543 -72.1243 40° Northeast 438 504 37,000  Level FlightAware ADS-B (KSNC)
05:03PM 42.1038 -72.0686 40° Northeast 439 505 37,000  Level FlightAware ADS-B (KSNC)
05:03PM 42.1513 -72.0150 40° Northeast 440 506 37,000  Level FlightAware ADS-B (KSNC)
05:04PM 42.1969 -71.9635 40° Northeast 440 506 37,000  Level FlightAware ADS-B (KASH)
05:04PM 42.2435 -71.9106 40° Northeast 441 507 37,000  Level FlightAware ADS-B (KASH)
05:05PM 42.2907 -71.8570 40° Northeast 442 509 37,000  Level FlightAware ADS-B (KASH)
05:05PM 42.3401 -71.8007 40° Northeast 442 509 37,000  Level FlightAware ADS-B (KASH)
05:06PM 42.3928 -71.7408 40° Northeast 442 509 37,000  Level FlightAware ADS-B (KSNC)
05:06PM 42.4417 -71.6852 40° Northeast 441 507 37,000  Level FlightAware ADS-B (KSNC)
05:07PM 42.4996 -71.6189 40° Northeast 441 507 37,000  Level FlightAware ADS-B (KSNC)
05:07PM 42.5527 -71.5577 41° Northeast 441 507 37,000  Level FlightAware ADS-B (KBOS)
05:08PM 42.6174 -71.4830 41° Northeast 439 505 37,000  Level FlightAware ADS-B (KBOS)
05:09PM 42.6670 -71.4257 41° Northeast 439 505 37,000  Level FlightAware ADS-B (KBOS)
05:09PM 42.7151 -71.3701 41° Northeast 433 498 37,000  Level FlightAware ADS-B (KASH)
05:10PM 42.7594 -71.3187 41° Northeast 439 505 37,000  Level FlightAware ADS-B (KBOS)
05:10PM 42.8079 -71.2625 41° Northeast 438 504 37,000  Level FlightAware ADS-B (KBOS)
05:11PM 42.8706 -71.1896 41° Northeast 438 504 37,000  Level FlightAware ADS-B (KBOS)
05:11PM 42.9245 -71.1269 41° Northeast 433 498 37,000  Level FlightAware ADS-B (KASH)
05:12PM 42.9726 -71.0706 41° Northeast 440 506 37,000  Level FlightAware ADS-B (KBOS)
05:13PM 43.0370 -70.9950 41° Northeast 440 506 37,000  Level FlightAware ADS-B (KBOS)
05:13PM 43.0884 -70.9346 42° Northeast 434 499 37,000  Level FlightAware ADS-B (KASH)
05:13PM 43.1150 -70.9032 42° Northeast 434 499 37,000  Level FlightAware ADS-B (KASH)
05:14PM 43.1627 -70.8468 41° Northeast 440 506 37,000  Level FlightAware ADS-B (KBOS)
05:14PM 43.2131 -70.7874 41° Northeast 440 506 37,000  Level FlightAware ADS-B (KBOS)
05:15PM 43.2307 -70.7665 42° Northeast 434 499 37,000  Level FlightAware ADS-B (KASH)
05:15PM 43.2450 -70.7496 42° Northeast 433 498 37,000  Level FlightAware ADS-B (KASH)
05:15PM 43.2975 -70.6872 41° Northeast 439 505 37,000 -120 Level FlightAware ADS-B (KBOS)
05:16PM 43.3414 -70.6348 41° Northeast 437 503 36,900 -1,440 Descending FlightAware ADS-B (KBOS)
05:17PM 43.4140 -70.5482 42° Northeast 435 501 35,200 -1,920 Descending FlightAware ADS-B (KASH)
05:17PM 43.4377 -70.5202 42° Northeast 447 514 35,000 -240 Descending FlightAware ADS-B (KASH)
05:18PM 43.5021 -70.4433 41° Northeast 456 525 35,000  Level FlightAware ADS-B (KBOS)
05:18PM 43.5780 -70.3518 41° Northeast 446 513 35,000 -540 Level FlightAware ADS-B (KASH)
05:19PM 43.6258 -70.2942 41° Northeast 451 519 34,300 -2,220 Descending FlightAware ADS-B (KASH)
05:19PM 43.6467 -70.2690 42° Northeast 455 524 33,400 -4,020 Descending FlightAware ADS-B (KASH)
05:20PM 43.6984 -70.2063 41° Northeast 470 541 31,300 -3,600 Descending FlightAware ADS-B (KBOS)
05:20PM 43.7468 -70.1477 41° Northeast 466 536 29,700 -2,940 Descending FlightAware ADS-B (KBOS)
05:21PM 43.7890 -70.0967 41° Northeast 458 527 28,300 -2,580 Descending FlightAware ADS-B (KBOS)
05:21PM 43.8468 -70.0265 41° Northeast 449 517 27,000 -2,880 Descending FlightAware ADS-B (KBOS)
05:22PM 43.8928 -69.9704 41° Northeast 441 507 25,400 -3,180 Descending FlightAware ADS-B (KBOS)
05:22PM 43.9373 -69.9160 42° Northeast 444 511 23,700 -3,540 Descending FlightAware ADS-B (KBOS)
05:23PM 43.8669 -70.0020 42° Northeast 451 519 21,000 -3,300 Descending FlightAware ADS-B (CYQI)
05:24PM 44.0835 -69.7367 42° Northeast 446 513 16,300 -2,580 Descending FlightAware ADS-B (CYQI)
05:26PM 44.2400 -69.5430 42° Northeast 391 450 14,400 -2,040 Descending FlightAware ADS-B (KBGR)
05:27PM 44.3643 -69.3881 42° Northeast 363 418 11,000 -1,500 Descending FlightAware ADS-B (KBGR)
05:28PM 44.4167 -69.3226 42° Northeast 312 359 10,900 -480 Descending FlightAware ADS-B (KBGR)
05:28PM 44.4459 -69.2860 42° Northeast 295 339 10,400 -1,380 Descending FlightAware ADS-B (KBGR)
05:29PM 44.4574 -69.2715 42° Northeast 294 338 9,900 -1,740 Descending FlightAware ADS-B (KBGR)
05:29PM 44.4942 -69.2255 42° Northeast 292 336 9,100 -1,620 Descending FlightAware ADS-B (KBGR)
05:30PM 44.5237 -69.1884 42° Northeast 290 334 8,300 -1,740 Descending FlightAware ADS-B (KBGR)
05:30PM 44.5402 -69.1678 42° Northeast 291 335 7,800 -1,740 Descending FlightAware ADS-B (KBGR)
05:30PM 44.5677 -69.1330 42° Northeast 289 333 7,000 -1,740 Descending FlightAware ADS-B (KBGR)
05:31PM 44.6006 -69.0946 32° Northeast 285 328 6,100 -1,620 Descending FlightAware ADS-B (KBGR)
05:31PM 44.6316 -69.0716 27° Northeast 276 318 5,400 -1,500 Descending FlightAware ADS-B (KBGR)
05:32PM 44.6516 -69.0579 26° Northeast 277 319 5,000 -1,620 Descending FlightAware ADS-B (KBGR)
05:32PM 44.6873 -69.0341 25° Northeast 280 322 4,200 -1,200 Descending FlightAware ADS-B (KBGR)
05:32PM 44.7046 -69.0229 24° Northeast 270 311 4,100 -240 Descending FlightAware ADS-B (KBGR)
05:33PM 44.7182 -69.0179 North 255 293 4,100  Level FlightAware ADS-B (KBGR)
05:33PM 44.7290 -69.0189 349° North 246 283 4,100  Level FlightAware ADS-B (KBGR)
05:33PM 44.7529 -69.0267 346° North 238 274 4,100  Level FlightAware ADS-B (KBGR)
05:33PM 44.7704 -69.0327 347° North 236 272 4,100  Level FlightAware ADS-B (KBGR)
05:34PM 44.7866 -69.0380 347° North 233 268 4,100  Level FlightAware ADS-B (KBGR)
05:34PM 44.8016 -69.0430 347° North 235 270 4,100  Level FlightAware ADS-B (KBGR)
05:34PM 44.8187 -69.0485 347° North 235 270 4,100 -300 Level FlightAware ADS-B (KBGR)
05:34PM 44.8089 -69.0453 332° Northwest 225 259 4,000 -840 Descending FlightAware ADS-B (KBGR)
05:35PM 44.8465 -69.0682 328° Northwest 220 253 3,700 -1,020 Descending FlightAware ADS-B (KBGR)
05:35PM 44.8596 -69.0779 339° North 226 260 3,400 -1,260 Descending FlightAware ADS-B (KBGR)
05:35PM 44.8760 -69.0783 15° North 231 266 3,100 -600 Descending FlightAware ADS-B (KBGR)
05:35PM 44.8875 -69.0693 46° Northeast 224 258 3,100 -240 Level FlightAware ADS-B (KBGR)
05:36PM 44.8971 -69.0482 65° Northeast 220 253 3,000 -420 Descending FlightAware ADS-B (KBGR)
05:36PM 44.9027 -69.0289 69° East 214 246 2,900 -660 Descending FlightAware ADS-B (KBGR)
05:36PM 44.9091 -69.0017 81° East 206 237 2,600 -1,020 Descending FlightAware ADS-B (KBGR)
05:36PM 44.9091 -68.9899 95° East 203 234 2,400 -1,200 Descending FlightAware ADS-B (KBGR)
05:36PM 44.9084 -68.9856 106° East 199 229 2,400 -480 Level FlightAware ADS-B (KBGR)
05:37PM 44.9044 -68.9735 121° Southeast 195 224 2,300 -240 Descending FlightAware ADS-B (KBGR)
05:37PM 44.8970 -68.9595 131° Southeast 184 212 2,300 -240 Level FlightAware ADS-B (KBGR)
05:37PM 44.8876 -68.9447 133° Southeast 181 208 2,200 -780 Descending FlightAware ADS-B (KBGR)
05:37PM 44.8791 -68.9320 133° Southeast 180 207 1,900 -1,020 Descending FlightAware ADS-B (KBGR)
05:38PM 44.8704 -68.9194 134° Southeast 182 209 1,700 -1,020 Descending FlightAware ADS-B (KBGR)
05:38PM 44.8612 -68.9059 133° Southeast 175 201 1,400 -960 Descending FlightAware ADS-B (KBGR)
05:38PM 44.8517 -68.8921 134° Southeast 156 180 1,200 -720 Descending FlightAware ADS-B (KBGR)
05:38PM 44.8434 -68.8802 134° Southeast 145 167 1,000 -720 Descending FlightAware ADS-B (KBGR)
05:39PM 44.8322 -68.8639 134° Southeast 137 158 700 -780 Descending FlightAware ADS-B (KBGR)
05:39PM 44.8223 -68.8498 135° Southeast 136 157 400 -840 Descending FlightAware ADS-B (KBGR)